Yellowknife, Canada
Current Conditions -  °F | °C
As of 10:48 AM on Tuesday 21 Oct 2014 (Local Time) from CYZF Reporting Station
Haze Haze  
Wind Chill: 29°   Ceiling: 300
Heat Index: 34°   Visibility: 1mi
Dew Point: 34°   Wind: 6mph
Humidity: 100%   Direction: 360°N
Pressure: 29.44"   Gusts: NA
Location:  62.45°N, 114.37°W
Report Text: CYZF 211648Z 36005KT 1SM R34/3500V5000FT/U BR OVC003 01/01 A2944 RMK ST8 SLP980
Loading
Personal Weather Stations






























Interactive Weather Map
Tropical Storm Tracking
New forecast layout! Learn more

10-Day Weather Forecast

Advertisements
Track Severe Weather on mobile